Date,TemperatureHighF,TemperatureAvgF,TemperatureLowF,DewpointHighF,DewpointAvgF,DewpointLowF,HumidityHigh,HumidityAvg,HumidityLow,PressureMaxIn,PressureMinIn,WindSpeedMaxMPH,WindSpeedAvgMPH,GustSpeedMaxMPH,PrecipitationSumIn
2013-5-1,78.8,66.5,54.0,62.1,57.7,53.1,100,76,49,30.21,30.11,4,1,8,0.00
2013-5-2,78.1,65.6,52.9,61.6,56.8,52.8,100,75,50,30.21,30.12,4,1,11,0.00
2013-5-3,74.1,63.3,55.6,60.2,56.7,54.3,100,81,53,30.15,29.98,4,1,10,0.01
2013-5-4,63.9,55.0,51.8,56.9,53.8,51.8,100,96,68,29.99,29.91,4,0,12,2.96
2013-5-5,67.8,53.6,47.5,54.1,49.9,46.6,100,89,51,29.93,29.78,6,1,11,1.26
2013-5-6,60.8,52.1,47.3,53.3,50.2,46.8,100,93,66,29.95,29.81,3,1,9,0.25
2013-5-7,75.7,59.9,45.5,55.1,50.6,44.7,100,76,39,30.02,29.92,7,1,13,0.00
2013-5-8,79.3,64.8,53.2,62.1,56.6,52.8,100,77,44,30.09,29.99,5,1,8,0.00
2013-5-9,86.0,69.2,53.8,62.8,57.7,53.0,100,72,35,30.14,30.04,7,1,12,0.00
2013-5-10,76.3,67.0,56.3,62.8,59.1,56.0,100,78,54,30.10,29.97,5,1,11,0.00
2013-5-11,80.4,68.8,57.9,68.2,60.1,50.8,91,75,54,30.04,29.92,7,1,13,0.19
2013-5-12,69.3,58.7,46.6,53.2,37.7,24.2,93,51,22,30.19,30.03,8,2,14,0.00
2013-5-13,72.0,55.8,38.7,42.2,36.0,23.2,95,55,17,30.29,30.17,8,1,13,0.00
2013-5-14,84.9,63.9,42.1,58.8,49.8,41.2,100,65,35,30.27,30.08,7,1,17,0.00
2013-5-15,89.6,77.1,65.7,61.2,57.0,52.8,74,52,32,30.13,30.03,7,2,13,0.00
2013-5-16,88.2,72.0,59.2,64.3,60.0,57.2,95,69,38,30.11,29.99,6,1,12,0.00
2013-5-17,81.5,69.9,61.2,67.6,63.1,58.1,100,80,56,30.13,30.03,5,0,7,0.11
2013-5-18,79.3,70.8,65.1,71.8,67.7,64.9,100,90,72,30.09,30.01,4,1,9,0.54
2013-5-19,72.1,67.3,59.9,70.0,66.2,59.6,100,96,92,30.15,29.97,7,1,12,1.67
2013-5-20,88.3,70.3,57.4,70.9,64.0,57.1,100,83,50,30.15,30.02,4,1,10,0.00
2013-5-21,91.8,73.6,61.0,72.4,66.1,61.0,100,80,48,30.08,29.92,8,1,11,0.00
2013-5-22,87.3,71.9,64.4,71.2,67.2,64.1,100,87,49,30.00,29.88,6,1,11,0.51
2013-5-23,85.6,72.4,61.2,69.8,61.2,53.8,100,72,38,30.06,29.94,10,2,16,0.01
2013-5-24,76.3,66.2,54.9,56.1,49.9,40.8,92,59,30,30.30,30.06,10,2,16,0.00
2013-5-25,80.8,63.6,47.3,54.1,47.8,41.7,100,61,28,30.37,30.20,7,1,11,0.00
2013-5-26,83.5,66.6,51.3,58.5,53.4,49.6,100,67,34,30.31,30.18,6,1,11,0.00
2013-5-27,88.5,71.2,55.0,63.8,59.2,54.2,100,69,40,30.25,30.11,4,1,9,0.00
2013-5-28,90.1,75.3,61.7,66.4,62.4,58.9,100,68,38,30.21,30.11,4,1,10,0.00
2013-5-29,90.1,75.4,63.0,67.7,63.1,59.2,93,69,40,30.25,30.13,4,1,15,0.00
2013-5-30,88.0,75.4,64.6,68.0,65.5,63.3,96,73,49,30.25,30.12,7,1,15,0.00
2013-5-31,89.6,75.7,65.3,69.4,66.5,64.5,97,75,48,30.21,30.07,6,1,11,0.00